Time;durP1;ratioP1;P1;durP2;ratioP2;P2;SDS_P1;SDS_P2;PMS_P1;PMS_P2;Temp;Humidity;BMP_temperature;BMP_pressure;BME280_temperature;BME280_humidity;BME280_pressure;Samples;Min_cycle;Max_cycle;Signal;HPM_P1;HPM_P2
2024/01/15 00:01:43;;;;;;;;;;;;;;;17.00;32.92;100239.72;5079039;28;1126;-47
2024/01/15 00:04:09;;;;;;;;;;;;;;;16.33;34.35;100237.97;5079478;28;1023;-47
2024/01/15 00:06:34;;;;;;;;;;;;;;;16.35;34.63;100238.72;5070892;28;1159;-47
2024/01/15 00:09:00;;;;;;;;;;;;;;;17.75;32.20;100228.19;5079034;28;1135;-47
2024/01/15 00:11:26;;;;;;;;;;;;;;;16.85;33.13;100225.91;5065642;28;1086;-50
2024/01/15 00:13:51;;;;;;;;;;;;;;;16.18;34.54;100232.13;5079609;28;1024;-46
2024/01/15 00:16:17;;;;;;;;;;;;;;;16.68;34.13;100230.81;5079231;28;1898;-49
2024/01/15 00:18:43;;;;;;;;;;;;;;;17.86;31.94;100227.25;5076705;28;1156;-46
2024/01/15 00:21:08;;;;;;;;;;;;;;;16.81;33.58;100227.13;5079238;28;1123;-48
2024/01/15 00:23:34;;;;;;;;;;;;;;;16.20;34.33;100230.16;5079170;28;1047;-51
2024/01/15 00:26:00;;;;;;;;;;;;;;;16.99;33.47;100236.22;5065609;28;1016;-49
2024/01/15 00:28:26;;;;;;;;;;;;;;;17.70;31.93;100228.59;5078864;28;1130;-49
2024/01/15 00:30:51;;;;;;;;;;;;;;;16.67;33.79;100231.75;5067589;28;1111;-50
2024/01/15 00:33:17;;;;;;;;;;;;;;;16.14;34.36;100230.66;5078877;28;1201;-46
2024/01/15 00:35:42;;;;;;;;;;;;;;;16.88;33.72;100236.28;5078836;28;1905;-48
2024/01/15 00:38:08;;;;;;;;;;;;;;;17.71;31.90;100224.97;5078866;28;1046;-45
2024/01/15 00:40:34;;;;;;;;;;;;;;;16.68;33.61;100232.59;5078419;28;1173;-49
2024/01/15 00:42:59;;;;;;;;;;;;;;;16.13;34.39;100232.47;5074403;28;1027;-48
2024/01/15 00:45:25;;;;;;;;;;;;;;;17.35;32.69;100232.47;5078578;28;1094;-49
2024/01/15 00:47:50;;;;;;;;;;;;;;;17.29;32.52;100233.81;5078378;28;1118;-46
2024/01/15 00:50:17;;;;;;;;;;;;;;;16.45;34.16;100232.69;5078172;28;1067;-49
2024/01/15 00:52:42;;;;;;;;;;;;;;;16.12;34.86;100230.78;5079094;28;1229;-47
2024/01/15 00:55:08;;;;;;;;;;;;;;;17.60;32.29;100228.53;5066851;28;1973;-48
2024/01/15 00:57:33;;;;;;;;;;;;;;;17.08;32.90;100231.13;5077623;28;1143;-45
2024/01/15 00:59:59;;;;;;;;;;;;;;;16.31;34.42;100229.31;5077934;28;1233;-49
2024/01/15 01:02:25;;;;;;;;;;;;;;;16.83;33.62;100223.34;5078322;28;1019;-46
2024/01/15 01:04:51;;;;;;;;;;;;;;;17.84;31.78;100223.88;5078008;28;1166;-48
2024/01/15 01:07:17;;;;;;;;;;;;;;;16.74;33.71;100222.31;5073271;28;926;-44
2024/01/15 01:09:43;;;;;;;;;;;;;;;16.20;34.36;100213.41;5077535;28;1036;-45
2024/01/15 01:12:09;;;;;;;;;;;;;;;17.24;32.99;100217.41;5077892;28;1055;-48
2024/01/15 01:14:35;;;;;;;;;;;;;;;17.17;32.76;100217.09;5078035;28;1910;-45
2024/01/15 01:17:00;;;;;;;;;;;;;;;16.37;34.18;100220.00;5078087;28;1128;-47
2024/01/15 01:19:26;;;;;;;;;;;;;;;16.13;34.87;100215.72;5077493;28;1075;-48
2024/01/15 01:21:51;;;;;;;;;;;;;;;17.54;32.23;100210.44;5077475;28;1086;-50
2024/01/15 01:24:17;;;;;;;;;;;;;;;17.09;32.94;100219.53;5077787;28;1107;-50
2024/01/15 01:26:42;;;;;;;;;;;;;;;16.36;34.32;100215.66;5078158;28;1036;-45
2024/01/15 01:29:08;;;;;;;;;;;;;;;16.58;33.90;100209.44;5077442;28;1071;-49
2024/01/15 01:31:34;;;;;;;;;;;;;;;17.81;31.97;100209.03;5069833;28;869;-49
2024/01/15 01:33:59;;;;;;;;;;;;;;;16.51;33.54;100179.06;5077575;28;1079;-44
2024/01/15 01:36:25;;;;;;;;;;;;;;;16.12;34.78;100204.25;5078064;28;1972;-47
2024/01/15 01:38:50;;;;;;;;;;;;;;;17.24;32.96;100202.31;5077737;28;1056;-48
2024/01/15 01:41:16;;;;;;;;;;;;;;;17.62;32.06;100205.31;5077276;28;1126;-48
2024/01/15 01:43:43;;;;;;;;;;;;;;;16.61;33.67;100200.41;5076444;28;921;-46
2024/01/15 01:46:08;;;;;;;;;;;;;;;16.06;34.48;100209.19;5077623;28;1175;-45
2024/01/15 01:48:34;;;;;;;;;;;;;;;17.15;33.04;100203.06;5059588;28;1036;-47
2024/01/15 01:51:00;;;;;;;;;;;;;;;17.59;32.11;100204.72;5077093;28;1051;-46
2024/01/15 01:53:26;;;;;;;;;;;;;;;16.46;33.74;100206.00;5076658;28;1059;-46
2024/01/15 01:55:52;;;;;;;;;;;;;;;16.05;34.95;100197.72;5068816;28;1890;-43
2024/01/15 01:58:18;;;;;;;;;;;;;;;17.57;32.41;100201.34;5063772;28;1053;-46
2024/01/15 02:00:44;;;;;;;;;;;;;;;17.23;32.77;100205.91;5077571;28;1004;-45
2024/01/15 02:03:09;;;;;;;;;;;;;;;16.38;33.90;100197.81;5059259;28;1120;-47
2024/01/15 02:05:35;;;;;;;;;;;;;;;16.07;34.86;100197.59;5076816;28;1063;-47
2024/01/15 02:08:00;;;;;;;;;;;;;;;17.57;32.34;100193.38;5074400;28;929;-50
2024/01/15 02:10:26;;;;;;;;;;;;;;;17.24;32.58;100198.81;5076927;28;1423;-49
2024/01/15 02:12:51;;;;;;;;;;;;;;;16.36;34.32;100197.09;5076634;28;1126;-49
2024/01/15 02:15:17;;;;;;;;;;;;;;;16.79;33.53;100194.53;5076727;28;1985;-50
2024/01/15 02:17:58;;;;;;;;;;;;;;;17.80;31.80;100190.56;5077003;28;1040;-45
2024/01/15 02:20:24;;;;;;;;;;;;;;;16.62;33.71;100183.47;5065855;28;914;-45
2024/01/15 02:22:49;;;;;;;;;;;;;;;16.10;34.48;100190.25;5076356;28;1162;-45
2024/01/15 02:25:15;;;;;;;;;;;;;;;17.47;32.34;100182.69;5076611;28;1115;-43
2024/01/15 02:27:41;;;;;;;;;;;;;;;17.06;32.62;100182.56;5076545;28;1024;-46
2024/01/15 02:30:06;;;;;;;;;;;;;;;16.31;34.11;100188.66;5059076;28;1183;-49
2024/01/15 02:32:32;;;;;;;;;;;;;;;16.65;33.88;100186.72;5055486;28;1159;-43
2024/01/15 02:34:58;;;;;;;;;;;;;;;17.83;31.64;100177.81;5076447;28;1980;-44
2024/01/15 02:37:23;;;;;;;;;;;;;;;16.75;33.40;100184.16;5073082;28;1162;-46
2024/01/15 02:39:49;;;;;;;;;;;;;;;16.16;34.37;100183.63;5076881;28;1060;-48
2024/01/15 02:42:14;;;;;;;;;;;;;;;17.48;32.25;100179.06;5076986;28;1106;-50
2024/01/15 02:44:40;;;;;;;;;;;;;;;17.35;32.33;100173.97;5065780;28;918;-47
2024/01/15 02:47:06;;;;;;;;;;;;;;;16.50;33.79;100180.00;5076162;28;1052;-47
2024/01/15 02:49:32;;;;;;;;;;;;;;;16.15;34.51;100187.22;5076324;28;1111;-47
2024/01/15 02:51:57;;;;;;;;;;;;;;;17.60;32.11;100187.81;5076052;28;1095;-47
2024/01/15 02:54:23;;;;;;;;;;;;;;;17.02;32.90;100180.16;5075979;28;1160;-45
2024/01/15 02:56:49;;;;;;;;;;;;;;;16.32;34.00;100182.38;5071795;28;1975;-46
2024/01/15 02:59:14;;;;;;;;;;;;;;;16.34;34.33;100180.44;5076618;28;1508;-47
2024/01/15 03:01:40;;;;;;;;;;;;;;;17.73;32.02;100177.75;5076109;28;1036;-51
2024/01/15 03:04:05;;;;;;;;;;;;;;;16.98;32.84;100177.91;5076113;28;1214;-44
2024/01/15 03:06:31;;;;;;;;;;;;;;;16.22;34.59;100174.31;5076439;28;1127;-45
2024/01/15 03:08:56;;;;;;;;;;;;;;;16.98;33.15;100183.22;5064534;28;880;-46
2024/01/15 03:11:22;;;;;;;;;;;;;;;17.73;31.94;100182.28;5076324;28;1039;-48
2024/01/15 03:13:48;;;;;;;;;;;;;;;16.68;33.67;100188.31;5076193;28;1106;-49
2024/01/15 03:16:13;;;;;;;;;;;;;;;16.43;34.36;100186.81;5075567;28;1897;-45
2024/01/15 03:18:39;;;;;;;;;;;;;;;17.83;31.99;100187.63;5076114;28;1082;-47
2024/01/15 03:21:05;;;;;;;;;;;;;;;16.96;33.06;100188.66;5072548;28;1159;-45
2024/01/15 03:23:30;;;;;;;;;;;;;;;16.27;34.47;100185.41;5080763;28;1146;-47
2024/01/15 03:25:56;;;;;;;;;;;;;;;16.45;34.33;100195.50;5079693;28;1071;-44
2024/01/15 03:28:21;;;;;;;;;;;;;;;17.80;31.94;100188.72;5080383;28;1171;-45
2024/01/15 03:30:47;;;;;;;;;;;;;;;16.81;33.41;100200.56;5079973;28;1171;-47
2024/01/15 03:33:12;;;;;;;;;;;;;;;16.20;34.58;100203.63;5068365;28;1175;-47
2024/01/15 03:35:38;;;;;;;;;;;;;;;17.19;33.09;100201.84;5079850;28;1901;-47
2024/01/15 03:38:04;;;;;;;;;;;;;;;17.54;32.16;100198.97;5079739;28;1036;-48
2024/01/15 03:40:29;;;;;;;;;;;;;;;16.59;33.86;100204.97;5079733;28;1074;-44
2024/01/15 03:42:55;;;;;;;;;;;;;;;16.03;34.69;100189.91;5079106;28;1123;-47
2024/01/15 03:45:20;;;;;;;;;;;;;;;17.32;32.77;100201.66;5075122;28;1191;-47
2024/01/15 03:47:46;;;;;;;;;;;;;;;17.43;32.32;100197.25;5079784;28;1222;-49
2024/01/15 03:50:12;;;;;;;;;;;;;;;16.49;33.90;100191.63;5079681;28;1082;-48
2024/01/15 03:52:37;;;;;;;;;;;;;;;16.43;34.11;100194.78;5079542;28;1228;-45
2024/01/15 03:55:04;;;;;;;;;;;;;;;17.78;32.08;100184.53;5078455;28;1890;-48
2024/01/15 03:57:29;;;;;;;;;;;;;;;16.94;33.35;100190.59;5050856;28;1115;-50
2024/01/15 03:59:55;;;;;;;;;;;;;;;16.26;34.31;100181.91;5079574;28;1143;-49
2024/01/15 04:02:20;;;;;;;;;;;;;;;16.24;34.51;100198.91;5079725;28;1131;-47
2024/01/15 04:04:46;;;;;;;;;;;;;;;17.69;32.14;100196.78;5077244;28;1134;-47
2024/01/15 04:07:11;;;;;;;;;;;;;;;16.80;33.26;100196.22;5066464;28;1051;-47
2024/01/15 04:09:37;;;;;;;;;;;;;;;16.21;34.71;100196.50;5075349;28;1151;-45
2024/01/15 04:12:03;;;;;;;;;;;;;;;17.17;33.27;100198.47;5079354;28;1083;-47
2024/01/15 04:14:29;;;;;;;;;;;;;;;17.48;32.23;100203.00;5079286;28;1123;-47
2024/01/15 04:16:54;;;;;;;;;;;;;;;16.51;34.00;100195.00;5078847;28;1979;-48
2024/01/15 04:19:20;;;;;;;;;;;;;;;16.19;34.51;100203.75;5076965;28;1098;-45
2024/01/15 04:21:45;;;;;;;;;;;;;;;17.62;32.45;100207.13;5079057;28;1112;-44
2024/01/15 04:24:11;;;;;;;;;;;;;;;16.79;33.50;100211.31;5078776;28;1214;-45
2024/01/15 04:26:36;;;;;;;;;;;;;;;16.17;34.44;100206.53;5075010;28;1016;-44
2024/01/15 04:29:02;;;;;;;;;;;;;;;16.97;33.29;100206.28;5079075;28;1059;-48
2024/01/15 04:31:28;;;;;;;;;;;;;;;17.55;32.31;100209.47;5077753;28;1024;-46
2024/01/15 04:33:53;;;;;;;;;;;;;;;16.62;33.64;100204.72;5078658;28;1329;-46
2024/01/15 04:36:19;;;;;;;;;;;;;;;16.01;35.09;100209.56;5078931;28;1918;-47
2024/01/15 04:38:44;;;;;;;;;;;;;;;17.36;32.76;100216.38;5078796;28;1097;-47
2024/01/15 04:41:11;;;;;;;;;;;;;;;17.34;32.59;100209.50;5078918;28;1168;-44
2024/01/15 04:43:37;;;;;;;;;;;;;;;16.42;34.33;100212.50;5075514;28;1118;-42
2024/01/15 04:46:03;;;;;;;;;;;;;;;16.34;34.72;100201.66;5069954;28;1023;-45
2024/01/15 04:48:28;;;;;;;;;;;;;;;17.78;31.99;100211.13;5078466;28;1059;-45
2024/01/15 04:50:54;;;;;;;;;;;;;;;16.87;33.43;100213.31;5078725;28;1074;-47
2024/01/15 04:53:19;;;;;;;;;;;;;;;16.18;34.65;100199.41;5065547;28;1170;-47
2024/01/15 04:55:45;;;;;;;;;;;;;;;16.79;33.89;100207.81;5076842;28;1913;-50
2024/01/15 04:58:10;;;;;;;;;;;;;;;17.79;31.31;100199.50;5074359;28;1197;-42
2024/01/15 05:00:36;;;;;;;;;;;;;;;16.72;33.57;100199.50;5077947;28;920;-41
2024/01/15 05:03:02;;;;;;;;;;;;;;;16.16;34.32;100199.53;5078740;28;1238;-42
2024/01/15 05:05:27;;;;;;;;;;;;;;;16.98;33.31;100201.81;5077948;28;1134;-42
2024/01/15 05:07:53;;;;;;;;;;;;;;;17.77;31.79;100204.13;5074823;28;1249;-45
2024/01/15 05:10:18;;;;;;;;;;;;;;;16.58;33.59;100201.47;5076594;28;1087;-43
2024/01/15 05:12:44;;;;;;;;;;;;;;;16.11;34.53;100199.91;5078515;28;1083;-47
2024/01/15 05:15:10;;;;;;;;;;;;;;;17.02;33.38;100201.44;5072766;28;1914;-45
2024/01/15 05:17:35;;;;;;;;;;;;;;;17.41;32.14;100197.38;5058816;28;1114;-46
2024/01/15 05:20:01;;;;;;;;;;;;;;;16.41;34.04;100200.22;5074945;28;1127;-46
2024/01/15 05:22:26;;;;;;;;;;;;;;;17.56;32.47;100200.53;5065429;28;1139;-47
2024/01/15 05:24:52;;;;;;;;;;;;;;;16.12;34.63;100206.91;5077036;28;1098;-51
2024/01/15 05:27:18;;;;;;;;;;;;;;;15.39;35.96;100201.91;5065530;28;1123;-46
2024/01/15 05:29:43;;;;;;;;;;;;;;;15.00;36.72;100195.06;5076523;28;1099;-46
2024/01/15 05:32:09;;;;;;;;;;;;;;;17.24;32.89;100191.69;5055119;28;1154;-49
2024/01/15 05:34:34;;;;;;;;;;;;;;;16.14;34.50;100191.72;5076556;28;1457;-46
2024/01/15 05:37:00;;;;;;;;;;;;;;;15.39;36.26;100188.66;5077573;28;1984;-44
2024/01/15 05:39:26;;;;;;;;;;;;;;;16.01;35.37;100186.53;5058480;28;1059;-47
2024/01/15 05:41:51;;;;;;;;;;;;;;;16.40;34.29;100190.53;5069551;28;1533;-47
2024/01/15 05:44:17;;;;;;;;;;;;;;;15.27;36.77;100183.34;5064396;28;1082;-46
2024/01/15 05:46:43;;;;;;;;;;;;;;;16.06;35.51;100180.88;5074710;28;1358;-49
2024/01/15 05:49:08;;;;;;;;;;;;;;;17.56;32.36;100192.56;5074255;28;937;-48
2024/01/15 05:51:34;;;;;;;;;;;;;;;15.79;35.55;100180.25;5075953;28;1143;-52
2024/01/15 05:53:59;;;;;;;;;;;;;;;15.28;36.36;100182.38;5066248;28;1023;-48
2024/01/15 05:56:25;;;;;;;;;;;;;;;15.44;36.16;100189.16;5070600;28;1949;-43
2024/01/15 05:58:51;;;;;;;;;;;;;;;17.47;32.73;100186.19;5064168;28;1055;-46
2024/01/15 06:01:17;;;;;;;;;;;;;;;16.37;34.49;100183.69;5076033;28;1075;-41
2024/01/15 06:03:42;;;;;;;;;;;;;;;15.51;36.04;100174.47;5077411;28;1182;-49
2024/01/15 06:06:08;;;;;;;;;;;;;;;15.13;36.72;100184.38;5076780;28;1062;-44
2024/01/15 06:08:34;;;;;;;;;;;;;;;16.95;33.61;100186.97;5070632;28;1103;-49
2024/01/15 06:10:59;;;;;;;;;;;;;;;16.64;33.97;100186.88;5058521;28;1155;-50
2024/01/15 06:13:25;;;;;;;;;;;;;;;15.62;35.97;100188.66;5051182;28;1160;-47
2024/01/15 06:15:51;;;;;;;;;;;;;;;15.48;36.34;100190.59;5076924;28;1910;-48
2024/01/15 06:18:16;;;;;;;;;;;;;;;17.56;32.44;100183.72;5076814;28;1110;-44
2024/01/15 06:20:42;;;;;;;;;;;;;;;15.88;35.46;100188.44;5070645;28;1198;-48
2024/01/15 06:23:08;;;;;;;;;;;;;;;15.22;36.85;100187.28;5058810;28;1171;-44
2024/01/15 06:25:33;;;;;;;;;;;;;;;17.30;33.19;100187.63;5067531;28;1068;-46
2024/01/15 06:27:59;;;;;;;;;;;;;;;16.71;33.65;100184.53;5076316;28;1289;-45
2024/01/15 06:30:25;;;;;;;;;;;;;;;15.69;35.66;100178.44;5057693;28;1212;-49
2024/01/15 06:32:50;;;;;;;;;;;;;;;15.20;37.04;100173.34;5074636;28;1211;-44
2024/01/15 06:35:16;;;;;;;;;;;;;;;17.15;33.47;100175.66;5076217;28;1980;-45
2024/01/15 06:37:41;;;;;;;;;;;;;;;16.78;33.64;100172.44;5076761;28;1141;-46
2024/01/15 06:40:07;;;;;;;;;;;;;;;16.33;34.77;100174.28;5076212;28;1154;-47
2024/01/15 06:42:33;;;;;;;;;;;;;;;18.14;31.78;100171.63;5075858;28;1076;-50
2024/01/15 06:44:59;;;;;;;;;;;;;;;16.39;34.28;100165.84;5074944;28;1193;-42
2024/01/15 06:47:24;;;;;;;;;;;;;;;15.65;36.10;100160.13;5076371;28;1098;-48
2024/01/15 06:49:51;;;;;;;;;;;;;;;15.27;37.00;100161.28;5076574;28;1091;-44
2024/01/15 06:52:17;;;;;;;;;;;;;;;17.62;32.72;100153.94;5072733;28;1268;-45
2024/01/15 06:54:43;;;;;;;;;;;;;;;16.05;35.00;100139.34;5075065;28;1215;-44
2024/01/15 06:57:08;;;;;;;;;;;;;;;15.46;36.32;100147.47;5063123;28;1980;-46
2024/01/15 06:59:35;;;;;;;;;;;;;;;17.01;33.81;100157.25;5063074;28;1131;-45
2024/01/15 07:02:01;;;;;;;;;;;;;;;16.59;34.19;100158.03;5069083;28;1404;-47
2024/01/15 07:04:26;;;;;;;;;;;;;;;15.54;36.39;100155.66;5069957;28;949;-44
2024/01/15 07:06:52;;;;;;;;;;;;;;;15.69;36.07;100149.25;5062639;28;1067;-45
2024/01/15 07:09:17;;;;;;;;;;;;;;;16.90;33.71;100151.97;5068718;28;1071;-45
2024/01/15 07:11:46;;;;;;;;;;;;;;;15.52;36.07;100146.97;5055911;28;1032;-45
2024/01/15 07:14:12;;;;;;;;;;;;;;;15.22;37.08;100147.53;5065939;28;1112;-48
2024/01/15 07:16:38;;;;;;;;;;;;;;;16.30;35.38;100145.31;5075062;28;1914;-50
2024/01/15 07:19:03;;;;;;;;;;;;;;;16.56;34.05;100139.72;5072464;28;1654;-49
2024/01/15 07:21:29;;;;;;;;;;;;;;;15.40;36.52;100142.63;5073025;28;1121;-43
2024/01/15 07:23:55;;;;;;;;;;;;;;;17.24;33.37;100143.84;5076050;28;1063;-43
2024/01/15 07:26:21;;;;;;;;;;;;;;;16.64;34.11;100141.72;5062072;28;1060;-49
2024/01/15 07:28:46;;;;;;;;;;;;;;;15.60;36.00;100133.13;5074862;28;983;-46
2024/01/15 07:31:12;;;;;;;;;;;;;;;17.17;33.70;100137.34;5062619;28;1094;-49
2024/01/15 07:33:38;;;;;;;;;;;;;;;16.07;35.20;100133.94;5073696;28;1063;-49
2024/01/15 07:36:03;;;;;;;;;;;;;;;15.95;36.05;100131.28;5062703;28;1971;-46
2024/01/15 07:38:29;;;;;;;;;;;;;;;15.63;36.11;100126.75;5076461;28;1140;-41
2024/01/15 07:40:55;;;;;;;;;;;;;;;16.91;34.26;100136.88;5075139;28;1137;-46
2024/01/15 07:43:20;;;;;;;;;;;;;;;16.44;34.67;100130.94;5068705;28;1348;-46
2024/01/15 07:45:46;;;;;;;;;;;;;;;15.53;36.79;100134.59;5064765;28;1208;-46
2024/01/15 07:48:12;;;;;;;;;;;;;;;16.24;35.57;100136.06;5066766;28;1198;-48
2024/01/15 07:50:37;;;;;;;;;;;;;;;17.13;33.60;100135.94;5075549;28;1221;-45
2024/01/15 07:53:03;;;;;;;;;;;;;;;15.70;36.47;100133.22;5071605;28;916;-46
2024/01/15 07:55:29;;;;;;;;;;;;;;;15.28;37.02;100129.38;5060524;28;1984;-44
2024/01/15 07:57:58;;;;;;;;;;;;;;;16.21;35.89;100138.97;5064337;28;892;-42
2024/01/15 08:00:24;;;;;;;;;;;;;;;17.47;32.92;100129.50;5062258;28;1230;-46
2024/01/15 08:02:51;;;;;;;;;;;;;;;15.79;35.97;100135.16;5075681;28;1066;-49
2024/01/15 08:05:16;;;;;;;;;;;;;;;15.29;37.00;100127.56;5074832;28;1051;-46
2024/01/15 08:07:42;;;;;;;;;;;;;;;15.05;37.57;100134.63;5078499;28;1078;-46
2024/01/15 08:10:07;;;;;;;;;;;;;;;14.87;37.53;100139.53;5068673;28;1103;-49
2024/01/15 08:12:33;;;;;;;;;;;;;;;16.35;35.35;100137.00;5069401;28;1360;-48
2024/01/15 08:14:59;;;;;;;;;;;;;;;16.13;35.38;100125.50;5077736;28;1901;-45
2024/01/15 08:17:28;;;;;;;;;;;;;;;15.98;36.05;100135.50;5079461;28;1082;-50
2024/01/15 08:19:54;;;;;;;;;;;;;;;17.86;32.37;100120.84;5060869;28;1257;-47
2024/01/15 08:22:19;;;;;;;;;;;;;;;16.03;35.70;100126.22;5058956;28;1148;-46
2024/01/15 08:24:45;;;;;;;;;;;;;;;15.38;36.63;100128.66;5072288;28;1175;-48
2024/01/15 08:27:11;;;;;;;;;;;;;;;15.88;36.20;100119.50;5059573;28;1039;-48
2024/01/15 08:29:36;;;;;;;;;;;;;;;17.21;33.43;100122.84;5068464;28;1252;-47
2024/01/15 08:32:02;;;;;;;;;;;;;;;15.69;36.42;100117.44;5072639;28;1232;-45
2024/01/15 08:34:27;;;;;;;;;;;;;;;15.24;37.01;100117.34;5066998;28;1049;-48
2024/01/15 08:36:53;;;;;;;;;;;;;;;16.72;34.73;100119.81;5078655;28;1910;-46
2024/01/15 08:39:19;;;;;;;;;;;;;;;16.36;34.96;100128.06;5078076;28;1115;-45
2024/01/15 08:41:46;;;;;;;;;;;;;;;15.43;36.85;100127.34;5078822;28;1066;-48
2024/01/15 08:44:12;;;;;;;;;;;;;;;15.18;37.39;100129.25;5077259;28;1122;-49
2024/01/15 08:46:37;;;;;;;;;;;;;;;14.90;37.39;100126.06;5076308;28;1571;-49
2024/01/15 08:49:03;;;;;;;;;;;;;;;15.39;37.01;100125.03;5077497;28;1036;-44
2024/01/15 08:51:28;;;;;;;;;;;;;;;17.40;33.14;100123.06;5073646;28;1377;-46
2024/01/15 08:53:54;;;;;;;;;;;;;;;15.70;36.27;100125.28;5063602;28;1131;-44
2024/01/15 08:56:19;;;;;;;;;;;;;;;15.93;35.90;100117.31;5070035;28;1910;-45
2024/01/15 08:58:46;;;;;;;;;;;;;;;17.29;33.38;100113.34;5074867;28;976;-47
2024/01/15 09:01:11;;;;;;;;;;;;;;;15.80;35.97;100112.13;5078383;28;1167;-45
2024/01/15 09:03:37;;;;;;;;;;;;;;;15.21;36.96;100109.63;5075238;28;1074;-47
2024/01/15 09:06:02;;;;;;;;;;;;;;;17.26;33.56;100095.84;5058287;28;1066;-47
2024/01/15 09:08:28;;;;;;;;;;;;;;;15.90;35.70;100091.00;5074756;28;1191;-46
2024/01/15 09:10:54;;;;;;;;;;;;;;;15.33;37.32;100091.91;5075481;28;1108;-42
2024/01/15 09:13:19;;;;;;;;;;;;;;;16.94;34.28;100083.47;5068031;28;1520;-44
2024/01/15 09:15:45;;;;;;;;;;;;;;;16.31;35.12;100075.38;5075378;28;1917;-46
2024/01/15 09:18:11;;;;;;;;;;;;;;;15.45;36.75;100063.59;5072851;28;978;-45
2024/01/15 09:20:38;;;;;;;;;;;;;;;15.52;36.72;100062.16;5069162;28;1088;-49
2024/01/15 09:23:03;;;;;;;;;;;;;;;17.39;33.24;100053.06;5073036;28;1103;-46
2024/01/15 09:25:29;;;;;;;;;;;;;;;15.83;35.80;100050.88;5068328;28;1071;-44
2024/01/15 09:27:55;;;;;;;;;;;;;;;16.80;34.71;100048.28;5073558;28;1146;-45
2024/01/15 09:30:20;;;;;;;;;;;;;;;16.46;34.62;100049.38;5068575;28;1257;-50
2024/01/15 09:32:46;;;;;;;;;;;;;;;15.59;36.55;100053.69;5076419;28;1236;-44
2024/01/15 09:35:11;;;;;;;;;;;;;;;15.30;36.88;100044.44;5074607;28;1898;-49
2024/01/15 09:37:37;;;;;;;;;;;;;;;15.78;36.75;100045.13;5069401;28;1066;-45
2024/01/15 09:40:04;;;;;;;;;;;;;;;17.73;32.74;100038.63;5069536;28;1366;-44
2024/01/15 09:42:30;;;;;;;;;;;;;;;15.87;35.98;100036.41;5077126;28;1182;-46
2024/01/15 09:44:55;;;;;;;;;;;;;;;15.34;36.97;100027.34;5059087;28;1450;-45
2024/01/15 09:47:21;;;;;;;;;;;;;;;17.02;34.24;100023.41;5052701;28;1440;-48
2024/01/15 09:49:47;;;;;;;;;;;;;;;16.36;34.87;100020.09;5054602;28;1236;-46
2024/01/15 09:52:13;;;;;;;;;;;;;;;15.55;36.48;100027.44;5066474;28;1131;-44
2024/01/15 09:54:40;;;;;;;;;;;;;;;15.14;37.77;100007.72;5057352;28;1179;-45
2024/01/15 09:57:06;;;;;;;;;;;;;;;17.32;33.65;100010.25;5072644;28;1978;-47
2024/01/15 09:59:31;;;;;;;;;;;;;;;16.12;35.67;100012.34;5067162;28;1128;-48
2024/01/15 10:01:57;;;;;;;;;;;;;;;15.36;37.27;100003.38;5048417;28;1019;-41
2024/01/15 10:04:23;;;;;;;;;;;;;;;15.18;37.37;99998.59;5058287;28;1107;-44
2024/01/15 10:06:49;;;;;;;;;;;;;;;16.85;34.66;99998.28;5076974;28;1063;-46
2024/01/15 10:09:15;;;;;;;;;;;;;;;16.74;33.95;99985.94;5049248;28;1099;-46
2024/01/15 10:11:44;;;;;;;;;;;;;;;15.62;36.78;99997.78;5069046;28;911;-49
2024/01/15 10:14:12;;;;;;;;;;;;;;;17.02;34.44;99985.34;5063809;28;1249;-48
2024/01/15 10:16:39;;;;;;;;;;;;;;;16.20;35.54;99978.06;5068995;28;1914;-48
2024/01/15 10:19:05;;;;;;;;;;;;;;;15.36;37.13;99971.56;5068264;28;1091;-43
2024/01/15 10:21:36;;;;;;;;;;;;;;;16.25;35.68;99972.34;5074936;28;1084;-43
2024/01/15 10:24:03;;;;;;;;;;;;;;;16.74;34.37;99963.84;5074442;28;966;-44
2024/01/15 10:26:29;;;;;;;;;;;;;;;15.63;36.55;99965.00;5064631;28;1242;-49
2024/01/15 10:28:55;;;;;;;;;;;;;;;15.98;36.59;99960.41;5072315;28;1104;-48
2024/01/15 10:31:21;;;;;;;;;;;;;;;16.89;34.18;99946.56;5076576;28;1083;-50
2024/01/15 10:33:50;;;;;;;;;;;;;;;15.77;36.59;99948.81;5072470;28;1194;-48
2024/01/15 10:36:17;;;;;;;;;;;;;;;15.27;37.60;99934.25;5075671;28;1973;-43
2024/01/15 10:38:46;;;;;;;;;;;;;;;15.05;37.84;99929.81;5076601;28;1066;-48
2024/01/15 10:41:11;;;;;;;;;;;;;;;15.19;37.84;99918.13;5077214;28;1170;-42
2024/01/15 10:43:37;;;;;;;;;;;;;;;17.30;34.06;99899.72;5076611;28;1119;-42
2024/01/15 10:46:03;;;;;;;;;;;;;;;15.64;36.52;99900.41;5076253;28;1056;-44
2024/01/15 10:48:30;;;;;;;;;;;;;;;15.18;37.36;99901.38;5038359;28;973;-45
2024/01/15 10:50:56;;;;;;;;;;;;;;;16.05;36.10;99889.97;5049690;28;990;-48
2024/01/15 10:53:22;;;;;;;;;;;;;;;17.77;33.04;99890.22;5075856;28;1178;-44
2024/01/15 10:55:51;;;;;;;;;;;;;;;15.93;36.24;99875.06;5058216;28;1979;-46
2024/01/15 10:58:17;;;;;;;;;;;;;;;15.45;36.97;99880.72;5070986;28;1330;-45
2024/01/15 11:00:42;;;;;;;;;;;;;;;15.05;37.86;99877.69;5075408;28;1042;-45
2024/01/15 11:03:08;;;;;;;;;;;;;;;15.63;37.14;99882.81;5076477;28;1202;-44
2024/01/15 11:05:38;;;;;;;;;;;;;;;17.59;33.25;99875.78;5058200;28;1087;-44
2024/01/15 11:08:07;;;;;;;;;;;;;;;15.73;36.50;99865.16;5058760;28;1131;-44
2024/01/15 11:10:42;;;;;;;;;;;;;;;15.25;37.21;99864.63;5064871;28;1091;-47
2024/01/15 11:13:14;;;;;;;;;;;;;;;17.37;33.72;99868.94;5067582;28;1158;-43
2024/01/15 11:15:56;;;;;;;;;;;;;;;16.27;35.61;99872.22;5076501;28;1987;-46
2024/01/15 11:18:22;;;;;;;;;;;;;;;15.46;37.24;99865.66;5064587;28;1047;-47
2024/01/15 11:21:06;;;;;;;;;;;;;;;16.07;36.11;99874.78;5063887;28;1269;-48
2024/01/15 11:23:42;;;;;;;;;;;;;;;16.89;34.38;99855.41;5065451;28;969;-47
2024/01/15 11:26:26;;;;;;;;;;;;;;;15.62;36.92;99844.84;5075146;28;1070;-42
2024/01/15 11:28:52;;;;;;;;;;;;;;;15.27;37.72;99849.47;5067434;28;1012;-49
2024/01/15 11:31:18;;;;;;;;;;;;;;;15.05;37.88;99853.84;5068829;28;1108;-46
2024/01/15 11:33:50;;;;;;;;;;;;;;;17.04;34.52;99844.38;5066463;28;1480;-46
2024/01/15 11:36:15;;;;;;;;;;;;;;;15.91;36.26;99848.69;5068726;28;1980;-47
2024/01/15 11:38:41;;;;;;;;;;;;;;;15.24;37.29;99836.47;5066419;28;1186;-42
2024/01/15 11:41:17;;;;;;;;;;;;;;;15.09;38.00;99835.91;5075564;28;1110;-45
2024/01/15 11:43:43;;;;;;;;;;;;;;;16.75;34.79;99825.59;5079557;28;1048;-49
2024/01/15 11:46:14;;;;;;;;;;;;;;;16.63;34.83;99822.19;5078880;28;1083;-44
2024/01/15 11:48:46;;;;;;;;;;;;;;;15.49;37.24;99828.28;5078152;28;979;-45
2024/01/15 11:51:12;;;;;;;;;;;;;;;15.35;37.45;99829.44;5057014;28;1569;-46
2024/01/15 11:53:47;;;;;;;;;;;;;;;17.49;33.46;99824.44;5065986;28;1195;-47
2024/01/15 11:56:16;;;;;;;;;;;;;;;15.79;36.61;99816.94;5040985;28;1989;-40
2024/01/15 11:58:42;;;;;;;;;;;;;;;15.52;37.26;99835.97;5059124;28;1066;-42
2024/01/15 12:01:08;;;;;;;;;;;;;;;17.68;33.42;99815.59;5058799;28;1095;-41
2024/01/15 12:03:34;;;;;;;;;;;;;;;15.97;35.93;99805.72;5056152;28;1167;-43
2024/01/15 12:06:00;;;;;;;;;;;;;;;17.57;33.54;99810.41;5078908;28;1115;-47
2024/01/15 12:08:27;;;;;;;;;;;;;;;17.25;33.77;99801.75;5079318;28;1039;-44
2024/01/15 12:10:52;;;;;;;;;;;;;;;15.98;36.04;99795.94;5078110;28;1071;-45
2024/01/15 12:13:18;;;;;;;;;;;;;;;15.57;37.00;99794.03;5060236;28;1076;-47
2024/01/15 12:15:44;;;;;;;;;;;;;;;15.27;37.80;99791.16;5071294;28;1906;-48
2024/01/15 12:18:11;;;;;;;;;;;;;;;16.20;36.17;99789.66;5069122;28;1449;-45
2024/01/15 12:20:36;;;;;;;;;;;;;;;17.06;34.03;99797.25;5070593;28;1068;-44
2024/01/15 12:23:08;;;;;;;;;;;;;;;15.75;36.89;99796.94;5058608;28;1356;-48
2024/01/15 12:25:34;;;;;;;;;;;;;;;15.33;37.25;99791.63;5067630;28;973;-48
2024/01/15 12:28:00;;;;;;;;;;;;;;;16.37;35.78;99797.94;5061531;28;1171;-47
2024/01/15 12:30:28;;;;;;;;;;;;;;;17.37;33.50;99778.53;5079263;28;1222;-48
2024/01/15 12:32:54;;;;;;;;;;;;;;;15.87;36.33;99776.50;5079174;28;1191;-45
2024/01/15 12:35:20;;;;;;;;;;;;;;;15.33;37.62;99773.91;5061332;28;1965;-47
2024/01/15 12:37:48;;;;;;;;;;;;;;;15.23;37.85;99765.06;5071511;28;1181;-50
2024/01/15 12:40:14;;;;;;;;;;;;;;;15.04;38.29;99762.13;5079344;28;1092;-46
2024/01/15 12:42:40;;;;;;;;;;;;;;;17.13;33.82;99759.38;5060291;28;1167;-48
2024/01/15 12:45:06;;;;;;;;;;;;;;;16.18;35.22;99762.44;5078020;28;1108;-49